Time;durP1;ratioP1;P1;durP2;ratioP2;P2;SDS_P1;SDS_P2;PMS_P1;PMS_P2;Temp;Humidity;BMP_temperature;BMP_pressure;BME280_temperature;BME280_humidity;BME280_pressure;Samples;Min_cycle;Max_cycle;Signal;HPM_P1;HPM_P2
2021/10/31 00:00:14;;;;;;;5.80;3.40;;;15.30;99.90;;;;;;8315788;28;20450;-77
2021/10/31 00:04:15;;;;;;;2.67;2.40;;;15.20;99.90;;;;;;8300915;28;20307;-76
2021/10/31 00:08:15;;;;;;;10.03;3.07;;;15.10;99.90;;;;;;8315156;28;20636;-77
2021/10/31 00:12:16;;;;;;;3.10;2.80;;;15.00;99.90;;;;;;8317974;28;20554;-76
2021/10/31 00:16:17;;;;;;;2.70;2.50;;;14.90;99.90;;;;;;8289898;28;20216;-77
2021/10/31 00:20:17;;;;;;;2.63;2.43;;;14.80;99.90;;;;;;8311755;28;20211;-76
2021/10/31 00:24:18;;;;;;;3.30;3.00;;;14.70;99.90;;;;;;8313825;28;20187;-77
2021/10/31 00:28:19;;;;;;;3.03;2.60;;;14.60;99.90;;;;;;8301210;28;20188;-77
2021/10/31 00:32:20;;;;;;;4.03;3.47;;;14.50;99.90;;;;;;8299779;28;20851;-76
2021/10/31 00:36:20;;;;;;;3.07;2.60;;;14.40;99.90;;;;;;8319686;28;20196;-76
2021/10/31 00:40:21;;;;;;;5.53;3.70;;;14.30;99.90;;;;;;8313394;28;20210;-77
2021/10/31 00:44:22;;;;;;;3.47;3.27;;;14.20;99.90;;;;;;8311463;28;20190;-77
2021/10/31 00:48:22;;;;;;;5.80;3.67;;;14.10;99.90;;;;;;8313966;28;20183;-77
2021/10/31 00:52:24;;;;;;;5.17;3.23;;;14.00;99.90;;;;;;8321621;28;20304;-77
2021/10/31 00:56:25;;;;;;;3.30;3.10;;;13.90;99.90;;;;;;8317363;28;20238;-77
2021/10/31 01:00:26;;;;;;;4.73;4.30;;;13.90;99.90;;;;;;8299691;28;20470;-77
2021/10/31 01:04:27;;;;;;;3.60;3.30;;;13.80;99.90;;;;;;8314534;28;20551;-77
2021/10/31 01:08:49;;;;;;;4.90;4.40;;;13.80;99.90;;;;;;8310973;28;20540;-77
2021/10/31 01:13:08;;;;;;;4.83;4.00;;;13.70;99.90;;;;;;8305095;28;20547;-77
2021/10/31 01:17:29;;;;;;;6.57;4.13;;;13.70;99.90;;;;;;8294603;28;20999;-76
2021/10/31 01:21:51;;;;;;;3.60;3.30;;;13.60;99.90;;;;;;8318308;28;20827;-77
2021/10/31 01:26:29;;;;;;;6.20;4.90;;;13.50;99.90;;;;;;8315555;28;20444;-77
2021/10/31 01:30:51;;;;;;;4.63;4.13;;;13.50;99.90;;;;;;8313463;28;20906;-77
2021/10/31 01:35:23;;;;;;;5.23;4.30;;;13.40;99.90;;;;;;8315855;28;20444;-77
2021/10/31 01:39:37;;;;;;;5.30;4.80;;;13.40;99.90;;;;;;8319678;28;20448;-77
2021/10/31 01:44:02;;;;;;;5.50;4.63;;;13.30;99.90;;;;;;8298552;28;20488;-77
2021/10/31 01:48:32;;;;;;;4.67;4.07;;;13.30;99.90;;;;;;8309518;28;20473;-76
2021/10/31 01:52:41;;;;;;;5.47;4.57;;;13.30;99.90;;;;;;8315437;28;20960;-76
2021/10/31 01:56:46;;;;;;;4.10;3.63;;;13.30;99.90;;;;;;8311073;28;20484;-76
2021/10/31 02:00:49;;;;;;;5.00;3.50;;;13.30;99.90;;;;;;8312047;28;20571;-77
2021/10/31 02:04:51;;;;;;;3.67;3.37;;;13.30;99.90;;;;;;8313728;28;20593;-77
2021/10/31 02:08:53;;;;;;;4.60;4.10;;;13.30;99.90;;;;;;8315139;28;20514;-76
2021/10/31 02:12:54;;;;;;;4.00;3.70;;;13.20;99.90;;;;;;8309726;28;20468;-77
2021/10/31 02:16:56;;;;;;;6.83;4.00;;;13.20;99.90;;;;;;8310473;28;20482;-77
2021/10/31 02:20:59;;;;;;;3.53;3.23;;;13.10;99.90;;;;;;8312658;28;20471;-76
2021/10/31 02:25:01;;;;;;;3.57;3.27;;;13.00;99.90;;;;;;8293325;28;20510;-77
2021/10/31 02:29:07;;;;;;;4.57;3.87;;;12.90;99.90;;;;;;8315721;28;20442;-77
2021/10/31 02:33:08;;;;;;;5.80;4.80;;;12.80;99.90;;;;;;8312375;28;20946;-77
2021/10/31 02:37:10;;;;;;;7.90;4.67;;;12.60;99.90;;;;;;8309211;28;20602;-77
2021/10/31 02:41:11;;;;;;;4.57;3.97;;;12.50;99.90;;;;;;8291358;28;20470;-77
2021/10/31 02:45:12;;;;;;;6.50;4.47;;;12.40;99.90;;;;;;8308402;28;20440;-77
2021/10/31 02:49:13;;;;;;;4.90;4.37;;;12.40;99.90;;;;;;8311150;28;20803;-77
2021/10/31 02:53:25;;;;;;;4.60;4.20;;;12.30;99.90;;;;;;8312887;28;20455;-76
2021/10/31 02:57:35;;;;;;;7.87;5.60;;;12.20;99.90;;;;;;8309419;28;20273;-77
2021/10/31 03:01:37;;;;;;;5.97;4.83;;;12.10;99.90;;;;;;8292601;28;20487;-76
2021/10/31 03:05:37;;;;;;;8.67;4.97;;;12.00;99.90;;;;;;8309698;28;20843;-77
2021/10/31 03:09:38;;;;;;;7.03;4.60;;;12.00;99.90;;;;;;8310245;28;20618;-76
2021/10/31 03:13:39;;;;;;;7.87;5.73;;;12.00;99.90;;;;;;8308988;28;20184;-77
2021/10/31 03:17:40;;;;;;;7.47;5.50;;;11.90;99.90;;;;;;8310910;28;20177;-77
2021/10/31 03:21:40;;;;;;;9.17;5.60;;;11.90;99.90;;;;;;8310777;28;20497;-77
2021/10/31 03:25:41;;;;;;;7.40;5.27;;;11.90;99.90;;;;;;8295082;28;20202;-77
2021/10/31 03:29:42;;;;;;;5.43;4.83;;;11.90;99.90;;;;;;8314424;28;20220;-77
2021/10/31 03:33:42;;;;;;;6.03;4.50;;;11.90;99.90;;;;;;8310590;28;20711;-77
2021/10/31 03:37:43;;;;;;;4.83;4.40;;;11.80;99.90;;;;;;8317630;28;20184;-76
2021/10/31 03:41:45;;;;;;;6.63;4.90;;;11.70;99.90;;;;;;8310090;28;20585;-76
2021/10/31 03:45:48;;;;;;;8.30;5.50;;;11.60;99.90;;;;;;8308917;28;20623;-77
2021/10/31 03:49:49;;;;;;;11.20;6.83;;;11.50;99.90;;;;;;8314323;28;20534;-77
2021/10/31 03:53:49;;;;;;;13.33;6.97;;;11.40;99.90;;;;;;8310655;28;20453;-77
2021/10/31 03:57:50;;;;;;;9.13;6.17;;;11.50;99.90;;;;;;8299817;28;20271;-77
2021/10/31 04:01:51;;;;;;;11.17;6.87;;;11.60;99.90;;;;;;8296681;28;20215;-77
2021/10/31 04:05:51;;;;;;;10.80;6.70;;;11.70;99.90;;;;;;8312676;28;20196;-77
2021/10/31 04:09:52;;;;;;;6.73;4.50;;;11.70;99.90;;;;;;8312642;28;20208;-77
2021/10/31 04:13:54;;;;;;;4.63;4.10;;;11.70;99.90;;;;;;8311226;28;20283;-77
2021/10/31 04:17:55;;;;;;;5.90;4.87;;;11.80;99.90;;;;;;8316838;28;20195;-77
2021/10/31 04:21:55;;;;;;;4.87;3.37;;;11.70;99.90;;;;;;8303986;28;20753;-77
2021/10/31 04:25:57;;;;;;;5.63;5.07;;;11.70;99.90;;;;;;8300399;28;20202;-77
2021/10/31 04:29:57;;;;;;;5.30;4.33;;;11.70;99.90;;;;;;8316034;28;20191;-77
2021/10/31 04:33:58;;;;;;;4.00;3.70;;;11.60;99.90;;;;;;8302068;28;20465;-76
2021/10/31 04:38:07;;;;;;;5.60;4.20;;;11.50;99.90;;;;;;8315056;28;20743;-77
2021/10/31 04:42:09;;;;;;;6.50;3.97;;;11.50;99.90;;;;;;8320667;28;20284;-76
2021/10/31 04:46:10;;;;;;;5.50;4.50;;;11.40;99.90;;;;;;8315777;28;20496;-77
2021/10/31 04:50:11;;;;;;;7.70;5.10;;;11.30;99.90;;;;;;8316619;28;20442;-77
2021/10/31 04:54:11;;;;;;;4.73;4.33;;;11.30;99.90;;;;;;8315750;28;20188;-76
2021/10/31 04:58:12;;;;;;;6.10;4.10;;;11.20;99.90;;;;;;8315783;28;20194;-77
2021/10/31 05:02:13;;;;;;;9.60;4.27;;;11.10;99.90;;;;;;8319930;28;20226;-77
2021/10/31 05:06:13;;;;;;;4.97;4.10;;;11.20;99.90;;;;;;8313383;28;20196;-77
2021/10/31 05:10:14;;;;;;;12.00;4.70;;;11.30;99.90;;;;;;8295936;28;20188;-77
2021/10/31 05:14:15;;;;;;;8.60;5.10;;;11.60;99.90;;;;;;8319007;28;20515;-77
2021/10/31 05:18:16;;;;;;;4.93;4.43;;;11.90;99.90;;;;;;8296916;28;20446;-77
2021/10/31 05:22:17;;;;;;;5.20;4.20;;;12.10;99.90;;;;;;8318865;28;20243;-77
2021/10/31 05:26:17;;;;;;;3.70;3.40;;;12.30;99.90;;;;;;8308716;28;20202;-77
2021/10/31 05:30:18;;;;;;;5.83;3.70;;;12.50;99.90;;;;;;8313416;28;20192;-77
2021/10/31 05:34:18;;;;;;;4.50;4.03;;;12.60;99.90;;;;;;8319233;28;20675;-76
2021/10/31 05:38:20;;;;;;;4.07;3.67;;;12.70;99.90;;;;;;8312102;28;20194;-77
2021/10/31 05:42:21;;;;;;;6.27;3.70;;;12.70;99.90;;;;;;8310565;28;20222;-75
2021/10/31 05:46:21;;;;;;;5.53;3.10;;;12.80;99.90;;;;;;8297723;28;20448;-76
2021/10/31 05:50:22;;;;;;;3.03;2.83;;;12.80;99.90;;;;;;8306193;28;20545;-76
2021/10/31 05:54:23;;;;;;;3.20;3.00;;;12.80;99.90;;;;;;8315711;28;20663;-76
2021/10/31 05:58:24;;;;;;;6.40;3.60;;;12.80;99.90;;;;;;8295789;28;20559;-77
2021/10/31 06:02:25;;;;;;;5.53;3.30;;;12.80;99.90;;;;;;8318618;28;20241;-77
2021/10/31 06:06:26;;;;;;;4.07;3.70;;;12.70;99.90;;;;;;8311667;28;20770;-76
2021/10/31 06:10:27;;;;;;;3.63;3.20;;;12.70;99.90;;;;;;8316944;28;20192;-77
2021/10/31 06:14:27;;;;;;;3.57;3.03;;;12.70;99.90;;;;;;8297986;28;20476;-77
2021/10/31 06:18:28;;;;;;;3.07;2.77;;;12.70;99.90;;;;;;8294219;28;20190;-77
2021/10/31 06:22:29;;;;;;;5.97;3.37;;;12.70;99.90;;;;;;8298908;28;20213;-76
2021/10/31 06:26:29;;;;;;;2.80;2.50;;;12.70;99.90;;;;;;8312114;28;20684;-76
2021/10/31 06:30:30;;;;;;;3.03;2.83;;;12.60;99.90;;;;;;8316693;28;20194;-76
2021/10/31 06:34:30;;;;;;;5.80;3.63;;;12.60;99.90;;;;;;8307228;28;20193;-76
2021/10/31 06:38:31;;;;;;;7.30;3.60;;;12.60;99.90;;;;;;8311756;28;20179;-76
2021/10/31 06:42:32;;;;;;;3.33;3.03;;;12.60;99.90;;;;;;8313488;28;20208;-76
2021/10/31 06:46:33;;;;;;;3.87;3.00;;;12.60;99.90;;;;;;8316122;28;20193;-79
2021/10/31 06:50:33;;;;;;;3.93;2.90;;;12.60;99.90;;;;;;8297573;28;20220;-78
2021/10/31 06:54:34;;;;;;;7.67;3.73;;;12.60;99.90;;;;;;8308579;28;20532;-78
2021/10/31 06:58:35;;;;;;;9.93;3.37;;;12.70;99.90;;;;;;8316240;28;20267;-78
2021/10/31 07:02:36;;;;;;;3.87;2.33;;;12.70;99.90;;;;;;8299119;28;20257;-78
2021/10/31 07:06:36;;;;;;;3.47;3.23;;;12.70;99.90;;;;;;8288814;28;20447;-77
2021/10/31 07:10:37;;;;;;;3.90;3.60;;;12.70;99.90;;;;;;8299234;28;20601;-77
2021/10/31 07:14:38;;;;;;;3.90;3.50;;;12.60;99.90;;;;;;8306506;28;20211;-77
2021/10/31 07:18:40;;;;;;;4.10;3.80;;;12.50;99.90;;;;;;8307403;28;20449;-76
2021/10/31 07:22:42;;;;;;;4.63;3.30;;;12.50;99.90;;;;;;8305316;28;20210;-76
2021/10/31 07:26:43;;;;;;;2.90;2.67;;;12.50;99.90;;;;;;8308256;28;20488;-76
2021/10/31 07:30:43;;;;;;;3.10;2.50;;;12.60;99.90;;;;;;8293112;28;20816;-78
2021/10/31 07:34:44;;;;;;;2.53;2.33;;;12.80;99.90;;;;;;8309776;28;20199;-78
2021/10/31 07:38:44;;;;;;;3.83;2.37;;;13.00;99.90;;;;;;8289447;28;20197;-78
2021/10/31 07:42:45;;;;;;;3.87;1.90;;;13.30;99.90;;;;;;8306403;28;20215;-76
2021/10/31 07:46:46;;;;;;;2.40;2.13;;;13.60;99.90;;;;;;8303640;28;20933;-77
2021/10/31 07:50:46;;;;;;;2.10;1.90;;;13.70;99.90;;;;;;8317395;28;20192;-78
2021/10/31 07:54:49;;;;;;;2.87;2.67;;;13.90;99.90;;;;;;8299558;28;20192;-77
2021/10/31 07:58:55;;;;;;;2.77;2.53;;;14.10;99.90;;;;;;8317381;28;21219;-77
2021/10/31 08:02:56;;;;;;;3.83;3.17;;;14.20;99.80;;;;;;8296742;28;20489;-77
2021/10/31 08:06:57;;;;;;;3.20;2.83;;;14.10;99.70;;;;;;8317816;28;20434;-78
2021/10/31 08:10:57;;;;;;;4.10;3.67;;;14.00;99.90;;;;;;8295708;28;20453;-77
2021/10/31 08:14:58;;;;;;;2.90;2.73;;;14.00;99.90;;;;;;8301960;28;20190;-77
2021/10/31 08:18:58;;;;;;;5.53;3.73;;;14.00;99.90;;;;;;8301628;28;20200;-77
2021/10/31 08:22:59;;;;;;;3.83;3.40;;;14.10;99.90;;;;;;8316190;28;20216;-78
2021/10/31 08:27:00;;;;;;;3.37;3.07;;;14.30;99.90;;;;;;8297636;28;20832;-78
2021/10/31 08:31:01;;;;;;;3.10;2.80;;;14.50;99.90;;;;;;8298170;28;20619;-77
2021/10/31 08:35:01;;;;;;;3.30;3.00;;;14.70;99.90;;;;;;8311085;28;20588;-78
2021/10/31 08:39:04;;;;;;;3.93;3.53;;;15.00;99.90;;;;;;8299924;28;20195;-77
2021/10/31 08:43:06;;;;;;;4.60;3.53;;;15.00;99.90;;;;;;8315772;28;20240;-77
2021/10/31 08:47:07;;;;;;;3.90;3.50;;;15.00;99.90;;;;;;8315290;28;20438;-77
2021/10/31 08:51:08;;;;;;;4.77;4.40;;;14.90;99.90;;;;;;8313468;28;21107;-77
2021/10/31 08:55:09;;;;;;;4.87;4.40;;;15.00;99.90;;;;;;8293263;28;20176;-76
2021/10/31 08:59:10;;;;;;;7.03;4.90;;;15.10;99.90;;;;;;8313218;28;21009;-75
2021/10/31 09:03:11;;;;;;;4.23;3.80;;;15.10;99.90;;;;;;8313373;28;20236;-77
2021/10/31 09:07:14;;;;;;;5.57;4.60;;;15.10;99.90;;;;;;8311957;28;20858;-77
2021/10/31 09:11:15;;;;;;;6.40;4.63;;;15.30;99.90;;;;;;8314604;28;20191;-78
2021/10/31 09:15:16;;;;;;;4.53;3.93;;;15.40;99.90;;;;;;8314325;28;20533;-77
2021/10/31 09:19:17;;;;;;;4.90;4.50;;;15.50;99.90;;;;;;8316938;28;20640;-77
2021/10/31 09:23:18;;;;;;;9.73;4.63;;;15.60;99.90;;;;;;8315331;28;21557;-77
2021/10/31 09:27:20;;;;;;;7.67;5.30;;;15.70;99.90;;;;;;8297969;28;20446;-77
2021/10/31 09:31:20;;;;;;;9.23;5.30;;;15.70;99.90;;;;;;8316401;28;20447;-77
2021/10/31 09:35:25;;;;;;;5.70;5.10;;;15.70;99.90;;;;;;8312594;28;20439;-76
2021/10/31 09:39:25;;;;;;;9.87;6.77;;;15.80;99.90;;;;;;8314405;28;20224;-77
2021/10/31 09:43:30;;;;;;;7.00;6.10;;;15.90;99.90;;;;;;8309596;28;20477;-76
2021/10/31 09:47:30;;;;;;;6.20;5.53;;;16.10;99.90;;;;;;8307679;28;20197;-76
2021/10/31 09:51:31;;;;;;;6.87;4.90;;;16.20;99.90;;;;;;8312057;28;21062;-77
2021/10/31 09:55:33;;;;;;;6.40;5.80;;;16.50;99.90;;;;;;8296566;28;20185;-76
2021/10/31 09:59:39;;;;;;;5.40;4.80;;;16.70;99.90;;;;;;8291973;28;20450;-76
2021/10/31 10:03:51;;;;;;;7.47;3.87;;;16.90;99.90;;;;;;8318401;28;21043;-76
2021/10/31 10:08:15;;;;;;;3.57;3.00;;;17.00;99.70;;;;;;8317780;28;20456;-77
2021/10/31 10:12:17;;;;;;;8.03;3.63;;;17.10;99.70;;;;;;8315095;28;20549;-76
2021/10/31 10:16:29;;;;;;;4.27;3.27;;;17.30;99.50;;;;;;8297398;28;20449;-76
2021/10/31 10:20:36;;;;;;;6.70;3.90;;;17.60;99.20;;;;;;8294067;28;20483;-77
2021/10/31 10:24:40;;;;;;;4.13;3.20;;;17.80;98.70;;;;;;8319159;28;20453;-76
2021/10/31 10:28:41;;;;;;;5.20;3.80;;;18.10;97.80;;;;;;8295716;28;20447;-77
2021/10/31 10:32:57;;;;;;;3.77;3.27;;;18.40;97.60;;;;;;8294074;28;20557;-77
2021/10/31 10:37:07;;;;;;;3.70;3.40;;;18.80;96.80;;;;;;8296300;28;20714;-77
2021/10/31 10:41:42;;;;;;;3.43;3.13;;;19.30;96.20;;;;;;8326953;28;20534;-78
2021/10/31 10:45:43;;;;;;;8.00;3.90;;;19.70;95.10;;;;;;8296675;28;20548;-77
2021/10/31 10:49:44;;;;;;;4.50;3.63;;;19.90;94.80;;;;;;8317324;28;20440;-76
2021/10/31 10:53:44;;;;;;;4.10;3.80;;;20.10;94.10;;;;;;8308477;28;20199;-78
2021/10/31 10:57:48;;;;;;;3.10;2.80;;;20.20;93.50;;;;;;8319029;28;20556;-76
2021/10/31 11:02:07;;;;;;;3.37;3.17;;;20.20;93.30;;;;;;8298367;28;20208;-77
2021/10/31 11:06:08;;;;;;;3.07;2.97;;;20.10;93.30;;;;;;8304819;28;20954;-78
2021/10/31 11:10:17;;;;;;;2.27;2.17;;;20.10;93.50;;;;;;8314306;28;20542;-77
2021/10/31 11:14:19;;;;;;;3.23;3.03;;;20.00;93.30;;;;;;8313792;28;20198;-77
2021/10/31 11:18:20;;;;;;;2.30;2.10;;;20.10;93.50;;;;;;8308891;28;20418;-79
2021/10/31 11:22:22;;;;;;;2.77;2.53;;;20.10;93.10;;;;;;8310142;28;20453;-79
2021/10/31 11:26:28;;;;;;;2.50;1.97;;;20.10;93.10;;;;;;8313285;28;20756;-75
2021/10/31 11:30:30;;;;;;;13.83;2.77;;;20.10;93.10;;;;;;8310350;28;20480;-75
2021/10/31 11:34:31;;;;;;;1.70;1.60;;;20.00;93.30;;;;;;8315908;28;20448;-77
2021/10/31 11:38:34;;;;;;;1.77;1.67;;;20.10;93.40;;;;;;8313459;28;20444;-77
2021/10/31 11:42:43;;;;;;;1.97;1.87;;;20.10;93.20;;;;;;8299698;28;20210;-76
2021/10/31 11:46:44;;;;;;;2.40;2.07;;;20.20;93.40;;;;;;8303224;28;20450;-77
2021/10/31 11:51:00;;;;;;;2.13;1.90;;;20.30;93.50;;;;;;8292964;28;20491;-78
2021/10/31 11:55:25;;;;;;;1.70;1.60;;;20.40;93.10;;;;;;8301509;28;20192;-77
2021/10/31 11:59:26;;;;;;;1.70;1.60;;;20.40;93.10;;;;;;8304848;28;20476;-77
2021/10/31 12:03:33;;;;;;;1.50;1.40;;;20.40;93.40;;;;;;8313505;28;20568;-76
2021/10/31 12:07:43;;;;;;;1.17;1.00;;;20.40;93.40;;;;;;8313765;28;20455;-78
2021/10/31 12:12:03;;;;;;;1.50;1.40;;;20.40;93.10;;;;;;8291912;28;20470;-78
2021/10/31 12:16:16;;;;;;;1.13;1.10;;;20.40;93.30;;;;;;8297626;28;20552;-77
2021/10/31 12:20:49;;;;;;;1.53;1.43;;;20.40;93.10;;;;;;8294576;28;20535;-75
2021/10/31 12:24:51;;;;;;;0.90;0.90;;;20.50;93.00;;;;;;8298667;28;20499;-77
2021/10/31 12:29:11;;;;;;;1.30;1.20;;;20.40;92.80;;;;;;8324168;28;20892;-76
2021/10/31 12:33:14;;;;;;;1.00;1.00;;;20.40;92.90;;;;;;8312626;28;20461;-77
2021/10/31 12:37:24;;;;;;;1.30;1.13;;;20.40;93.00;;;;;;8312013;28;20446;-76
2021/10/31 12:41:35;;;;;;;1.67;1.37;;;20.40;93.10;;;;;;8314195;28;20466;-76
2021/10/31 12:45:37;;;;;;;1.23;1.13;;;20.40;93.20;;;;;;8318242;28;20551;-76
2021/10/31 12:49:38;;;;;;;1.73;1.50;;;20.40;93.10;;;;;;8313023;28;21190;-76
2021/10/31 12:53:40;;;;;;;1.67;1.57;;;20.50;93.00;;;;;;8310579;28;20445;-76
2021/10/31 12:57:52;;;;;;;1.77;1.67;;;20.50;93.00;;;;;;8294567;28;20493;-77
2021/10/31 13:02:24;;;;;;;1.90;1.80;;;20.50;92.90;;;;;;8307381;28;20512;-77
2021/10/31 13:06:24;;;;;;;2.70;1.87;;;20.40;92.90;;;;;;8296565;28;20538;-77
2021/10/31 13:10:31;;;;;;;1.57;1.47;;;20.40;93.00;;;;;;8289317;28;20421;-77
2021/10/31 13:14:35;;;;;;;1.60;1.50;;;20.40;93.10;;;;;;8295887;28;20189;-77
2021/10/31 13:18:48;;;;;;;1.88;1.77;;;20.40;93.00;;;;;;3953796;28;10002748;-77
2021/10/31 13:22:59;;;;;;;1.60;1.50;;;20.40;92.80;;;;;;8283889;28;20453;-76
2021/10/31 13:27:00;;;;;;;1.63;1.53;;;20.40;92.70;;;;;;8282985;28;20451;-78
2021/10/31 13:31:11;;;;;;;1.27;1.20;;;20.40;92.70;;;;;;8277740;28;20447;-77
2021/10/31 13:35:11;;;;;;;1.77;1.67;;;20.50;92.80;;;;;;8263750;28;20445;-77
2021/10/31 13:39:15;;;;;;;1.67;1.23;;;20.50;92.80;;;;;;8282494;28;20418;-76
2021/10/31 13:43:16;;;;;;;2.07;1.73;;;20.50;93.00;;;;;;8279024;28;20204;-78
2021/10/31 13:47:40;;;;;;;1.03;1.00;;;20.60;92.90;;;;;;8276967;28;20962;-77
2021/10/31 13:51:47;;;;;;;1.30;1.20;;;20.70;92.70;;;;;;8264021;28;20600;-77
2021/10/31 13:55:48;;;;;;;1.50;1.40;;;20.80;92.90;;;;;;8284343;28;20527;-76
2021/10/31 13:59:51;;;;;;;1.17;1.17;;;20.70;92.70;;;;;;8290053;28;20471;-76
2021/10/31 14:03:51;;;;;;;1.10;1.10;;;20.70;92.80;;;;;;8286891;28;20873;-76
2021/10/31 14:08:01;;;;;;;1.40;1.30;;;20.70;92.90;;;;;;8254779;28;20445;-78
2021/10/31 14:12:04;;;;;;;1.27;1.17;;;20.80;92.90;;;;;;8276954;28;20305;-75
2021/10/31 14:16:17;;;;;;;1.50;1.10;;;20.90;92.90;;;;;;8270899;28;20416;-76
2021/10/31 14:20:18;;;;;;;1.00;1.00;;;20.90;92.80;;;;;;8274158;28;20456;-76
2021/10/31 14:24:19;;;;;;;2.30;1.37;;;21.00;92.80;;;;;;8258358;28;20575;-76
2021/10/31 14:28:21;;;;;;;1.27;1.17;;;21.00;92.80;;;;;;8271789;28;20290;-77
2021/10/31 14:32:22;;;;;;;1.37;1.10;;;21.00;92.70;;;;;;8274691;28;20185;-76
2021/10/31 14:36:31;;;;;;;1.73;1.63;;;21.00;92.80;;;;;;8275606;28;20867;-76
2021/10/31 14:40:35;;;;;;;1.33;1.23;;;20.90;93.00;;;;;;8256790;28;20258;-76
2021/10/31 14:44:39;;;;;;;1.20;1.10;;;20.90;92.70;;;;;;8273819;28;20582;-76
2021/10/31 14:48:54;;;;;;;1.33;1.10;;;20.90;92.90;;;;;;8275561;28;20513;-76
2021/10/31 14:52:55;;;;;;;1.30;1.20;;;20.80;92.90;;;;;;8276908;28;20447;-76
2021/10/31 15:01:21;;;;;;;1.17;1.10;;;20.70;93.00;;;;;;8277925;28;20207;-77
2021/10/31 15:05:23;;;;;;;1.37;1.27;;;20.70;93.10;;;;;;8272804;28;20453;-78
2021/10/31 15:09:25;;;;;;;9.77;1.10;;;20.70;93.20;;;;;;8273474;28;20454;-76
2021/10/31 15:13:25;;;;;;;1.20;1.10;;;20.60;93.30;;;;;;8275224;28;20447;-76
2021/10/31 15:17:32;;;;;;;1.00;1.00;;;20.60;93.40;;;;;;8272532;28;21180;-76
2021/10/31 15:21:38;;;;;;;0.80;0.80;;;20.60;93.40;;;;;;8267585;28;20687;-76
2021/10/31 15:25:39;;;;;;;1.63;1.00;;;20.60;93.50;;;;;;8276576;28;20494;-76
2021/10/31 15:29:43;;;;;;;2.33;0.97;;;20.50;93.60;;;;;;8271783;28;20432;-77
2021/10/31 15:33:45;;;;;;;1.20;1.10;;;20.50;93.60;;;;;;8274374;28;20247;-77
2021/10/31 15:37:46;;;;;;;1.10;1.10;;;20.40;93.70;;;;;;8280782;28;21201;-76
2021/10/31 15:41:46;;;;;;;1.07;0.97;;;20.40;93.60;;;;;;8272292;28;20480;-77
2021/10/31 15:45:48;;;;;;;0.90;0.90;;;20.40;93.50;;;;;;8273942;28;20184;-77
2021/10/31 15:49:49;;;;;;;0.97;0.93;;;20.40;93.40;;;;;;8277988;28;20187;-76
2021/10/31 15:53:50;;;;;;;1.13;1.03;;;20.40;93.40;;;;;;8278003;28;20447;-76
2021/10/31 15:57:51;;;;;;;4.40;0.97;;;20.40;93.40;;;;;;8280512;28;20531;-77
2021/10/31 16:02:02;;;;;;;0.87;0.87;;;20.30;93.50;;;;;;8280717;28;20209;-77
2021/10/31 16:06:03;;;;;;;0.80;0.80;;;20.30;93.50;;;;;;8256670;28;20185;-77
2021/10/31 16:10:04;;;;;;;0.60;0.60;;;20.20;93.60;;;;;;8263107;28;20563;-76
2021/10/31 16:14:04;;;;;;;0.93;0.93;;;20.10;93.60;;;;;;8279600;28;20199;-77
2021/10/31 16:18:09;;;;;;;0.90;0.90;;;20.10;93.70;;;;;;8279664;28;20441;-78
2021/10/31 16:22:10;;;;;;;0.80;0.80;;;20.10;93.70;;;;;;8287328;28;20209;-77
2021/10/31 16:26:17;;;;;;;1.30;1.20;;;20.10;93.60;;;;;;8273423;28;20443;-77
2021/10/31 16:30:18;;;;;;;0.90;0.83;;;20.20;93.60;;;;;;8257997;28;20185;-77
2021/10/31 16:34:18;;;;;;;0.70;0.70;;;20.20;93.50;;;;;;8261319;28;20804;-77
2021/10/31 16:38:19;;;;;;;1.77;1.23;;;20.20;93.40;;;;;;8264379;28;20288;-77
2021/10/31 16:42:23;;;;;;;1.17;1.10;;;20.30;93.40;;;;;;8282618;28;20599;-78
2021/10/31 16:46:23;;;;;;;0.93;0.90;;;20.30;93.20;;;;;;8267864;28;20204;-78
2021/10/31 16:50:26;;;;;;;1.07;0.97;;;20.30;93.20;;;;;;8275013;28;20451;-77
2021/10/31 16:54:27;;;;;;;2.40;1.10;;;20.30;93.30;;;;;;8270894;28;20277;-78
2021/10/31 16:58:28;;;;;;;2.87;1.40;;;20.40;93.30;;;;;;8258358;28;20490;-77
2021/10/31 17:02:28;;;;;;;1.10;1.00;;;20.40;93.20;;;;;;8276955;28;20243;-77
2021/10/31 17:06:29;;;;;;;1.10;1.10;;;20.40;93.20;;;;;;8259907;28;20987;-79
2021/10/31 17:10:34;;;;;;;7.53;1.13;;;20.40;93.20;;;;;;8274879;28;20281;-77
2021/10/31 17:14:35;;;;;;;1.23;1.00;;;20.30;93.20;;;;;;8274391;28;20185;-76
2021/10/31 17:18:36;;;;;;;1.00;0.90;;;20.30;93.10;;;;;;8278383;28;20851;-77
2021/10/31 17:22:37;;;;;;;1.37;1.27;;;20.30;93.10;;;;;;8273631;28;22288;-77
2021/10/31 17:26:39;;;;;;;0.97;0.87;;;20.30;93.10;;;;;;8278809;28;20186;-76
2021/10/31 17:30:41;;;;;;;2.10;0.90;;;20.30;93.00;;;;;;8251245;28;20441;-77
2021/10/31 17:34:42;;;;;;;1.50;1.20;;;20.30;93.00;;;;;;8268602;28;20453;-77
2021/10/31 17:38:43;;;;;;;1.03;1.03;;;20.30;93.00;;;;;;8272018;28;20450;-76
2021/10/31 17:42:43;;;;;;;1.10;0.97;;;20.30;92.90;;;;;;8267996;28;20216;-77
2021/10/31 17:46:44;;;;;;;1.20;1.10;;;20.40;92.90;;;;;;8273282;28;20218;-77
2021/10/31 17:50:45;;;;;;;0.90;0.90;;;20.40;92.90;;;;;;8270975;28;20186;-78
2021/10/31 17:54:46;;;;;;;0.83;0.83;;;20.40;92.80;;;;;;8256455;28;20450;-76
2021/10/31 17:58:46;;;;;;;1.23;1.13;;;20.40;93.20;;;;;;8286780;28;20277;-77
2021/10/31 18:02:47;;;;;;;1.33;1.23;;;20.30;93.30;;;;;;8266855;28;20237;-77
2021/10/31 18:06:48;;;;;;;0.90;0.90;;;20.20;93.30;;;;;;8261471;28;20181;-77
2021/10/31 18:10:49;;;;;;;3.17;1.27;;;20.20;93.40;;;;;;8284376;28;20443;-76
2021/10/31 18:14:49;;;;;;;1.20;1.10;;;20.20;93.90;;;;;;8268412;28;20181;-78
2021/10/31 18:18:50;;;;;;;1.00;1.00;;;20.00;94.30;;;;;;8282054;28;20189;-76
2021/10/31 18:22:54;;;;;;;2.27;1.23;;;19.80;94.40;;;;;;8282528;28;20216;-77
2021/10/31 18:26:55;;;;;;;1.87;1.77;;;19.70;94.50;;;;;;8262396;28;20474;-77
2021/10/31 18:30:56;;;;;;;1.27;1.17;;;19.70;94.50;;;;;;8261797;28;20950;-77
2021/10/31 18:34:56;;;;;;;1.13;1.03;;;19.70;94.60;;;;;;8278549;28;20189;-77
2021/10/31 18:38:57;;;;;;;1.33;1.20;;;19.70;94.60;;;;;;8279292;28;20263;-78
2021/10/31 18:42:59;;;;;;;0.97;0.97;;;19.70;94.60;;;;;;8280336;28;20217;-77
2021/10/31 18:47:00;;;;;;;1.17;1.07;;;19.70;94.50;;;;;;8285144;28;20446;-77
2021/10/31 18:51:01;;;;;;;1.13;1.03;;;19.80;94.50;;;;;;8269813;28;20444;-77
2021/10/31 18:55:03;;;;;;;1.30;1.00;;;19.80;94.50;;;;;;8276729;28;20784;-77
2021/10/31 18:59:04;;;;;;;1.40;1.10;;;19.90;94.40;;;;;;8266201;28;21100;-77
2021/10/31 19:03:05;;;;;;;1.00;1.00;;;20.00;94.50;;;;;;8282538;28;20486;-77
2021/10/31 19:07:06;;;;;;;1.47;1.00;;;20.00;94.40;;;;;;8279481;28;20173;-76
2021/10/31 19:11:07;;;;;;;1.10;1.00;;;20.00;94.40;;;;;;8277109;28;20961;-77
2021/10/31 19:15:09;;;;;;;1.30;1.20;;;20.00;94.40;;;;;;8272242;28;20185;-77
2021/10/31 19:19:09;;;;;;;1.07;1.00;;;20.00;94.40;;;;;;8273645;28;20659;-76
2021/10/31 19:23:10;;;;;;;1.17;1.07;;;20.00;94.40;;;;;;8281222;28;20460;-76
2021/10/31 19:27:12;;;;;;;1.67;1.50;;;20.10;94.40;;;;;;8257490;28;20192;-75
2021/10/31 19:31:17;;;;;;;1.67;1.00;;;20.10;94.40;;;;;;8257655;28;20188;-76
2021/10/31 19:35:18;;;;;;;1.33;1.20;;;20.10;94.40;;;;;;8266093;28;20456;-76
2021/10/31 19:39:20;;;;;;;1.40;1.30;;;20.10;94.40;;;;;;8261624;28;20537;-76
2021/10/31 19:43:20;;;;;;;4.97;1.37;;;20.10;94.40;;;;;;8277792;28;20691;-76
2021/10/31 19:47:23;;;;;;;1.63;1.23;;;20.10;94.40;;;;;;8266701;28;20451;-76
2021/10/31 19:51:23;;;;;;;1.53;1.20;;;20.10;94.90;;;;;;8283566;28;20544;-76
2021/10/31 19:55:24;;;;;;;1.47;1.47;;;19.90;95.50;;;;;;8263221;28;20439;-76
2021/10/31 19:59:25;;;;;;;1.30;1.10;;;19.70;96.40;;;;;;8279023;28;20192;-76
2021/10/31 20:03:26;;;;;;;1.43;1.20;;;19.40;97.20;;;;;;8282595;28;20287;-77
2021/10/31 20:07:27;;;;;;;1.83;1.50;;;19.10;98.00;;;;;;8283399;28;20449;-77
2021/10/31 20:11:28;;;;;;;1.00;0.90;;;18.90;98.70;;;;;;8282175;28;20184;-75
2021/10/31 20:15:29;;;;;;;2.50;0.90;;;18.00;93.10;;;;;;8280403;28;20445;-75
2021/10/31 20:19:30;;;;;;;2.30;1.10;;;16.40;94.80;;;;;;8284400;28;22011;-75
2021/10/31 20:23:33;;;;;;;4.47;1.70;;;15.00;96.80;;;;;;8286752;28;20462;-75
2021/10/31 20:27:34;;;;;;;7.23;1.33;;;14.20;98.60;;;;;;8277838;28;20211;-75
2021/10/31 20:31:35;;;;;;;1.43;0.90;;;13.70;99.60;;;;;;8283419;28;20447;-76
2021/10/31 20:35:36;;;;;;;1.87;1.00;;;13.60;99.90;;;;;;8272660;28;20455;-76
2021/10/31 20:39:36;;;;;;;2.63;0.97;;;13.50;99.50;;;;;;8275618;28;20309;-76
2021/10/31 20:43:37;;;;;;;4.50;0.80;;;13.50;99.50;;;;;;8264813;28;20208;-77
2021/10/31 20:47:39;;;;;;;1.57;0.70;;;13.50;99.20;;;;;;8264649;28;20210;-77
2021/10/31 20:51:40;;;;;;;1.73;1.33;;;13.50;99.50;;;;;;8263564;28;20211;-77
2021/10/31 20:55:47;;;;;;;3.30;1.53;;;13.50;99.90;;;;;;8278368;28;20438;-77
2021/10/31 20:59:49;;;;;;;7.63;1.00;;;13.50;99.90;;;;;;8281717;28;20574;-76
2021/10/31 21:03:51;;;;;;;4.67;0.97;;;13.60;99.90;;;;;;8269524;28;20490;-76
2021/10/31 21:07:52;;;;;;;2.07;1.10;;;13.60;99.90;;;;;;8262468;28;20546;-76